createdAt,value
2023-05-03T00:01:28.614Z,7.53
2023-05-03T00:03:55.642Z,7.53
2023-05-03T00:06:22.791Z,8.95
2023-05-03T00:08:49.832Z,8.25
2023-05-03T00:11:16.872Z,8.43
2023-05-03T00:13:43.905Z,7.03
2023-05-03T00:16:10.889Z,10.18
2023-05-03T00:18:38.006Z,11.27
2023-05-03T00:21:05.435Z,8.82
2023-05-03T00:23:32.494Z,8.50
2023-05-03T00:25:59.489Z,7.97
2023-05-03T00:28:26.890Z,7.50
2023-05-03T00:30:54.111Z,6.32
2023-05-03T00:33:21.464Z,5.38
2023-05-03T00:35:48.534Z,6.10
2023-05-03T00:38:15.778Z,6.38
2023-05-03T00:40:43.109Z,5.75
2023-05-03T00:43:13.648Z,5.97
2023-05-03T00:45:41.032Z,5.88
2023-05-03T00:48:08.243Z,5.13
2023-05-03T00:50:36.949Z,6.20
2023-05-03T00:53:04.802Z,7.85
2023-05-03T00:55:33.191Z,8.43
2023-05-03T00:58:00.226Z,9.52
2023-05-03T01:00:27.342Z,8.90
2023-05-03T01:02:54.518Z,8.45
2023-05-03T01:05:22.797Z,9.30
2023-05-03T01:08:15.455Z,9.55
2023-05-03T01:10:51.477Z,9.90
2023-05-03T01:13:30.483Z,9.18
2023-05-03T01:16:09.408Z,11.68
2023-05-03T01:18:44.063Z,9.77
2023-05-03T01:21:16.437Z,8.95
2023-05-03T01:23:52.202Z,8.48
2023-05-03T01:26:23.507Z,9.27
2023-05-03T01:28:51.036Z,8.68
2023-05-03T01:31:28.852Z,8.73
2023-05-03T01:34:10.784Z,8.30
2023-05-03T01:36:40.861Z,8.48
2023-05-03T01:39:12.464Z,10.23
2023-05-03T01:41:40.571Z,9.50
2023-05-03T01:44:09.227Z,8.65
2023-05-03T01:46:43.681Z,10.25
2023-05-03T01:49:12.259Z,9.00
2023-05-03T01:51:39.610Z,9.00
2023-05-03T01:54:06.664Z,9.00
2023-05-03T01:56:36.630Z,7.80
2023-05-03T01:59:04.320Z,7.88
2023-05-03T02:01:31.492Z,7.53
2023-05-03T02:03:58.600Z,7.75
2023-05-03T02:06:26.229Z,7.60
2023-05-03T02:08:54.115Z,7.03
2023-05-03T02:11:21.454Z,7.15
2023-05-03T02:13:50.638Z,6.78
2023-05-03T02:16:18.306Z,6.55
2023-05-03T02:18:45.438Z,6.95
2023-05-03T02:21:13.145Z,7.60
2023-05-03T02:23:40.272Z,7.57
2023-05-03T02:26:07.913Z,7.68
2023-05-03T02:28:35.107Z,7.63
2023-05-03T02:31:02.755Z,8.48
2023-05-03T02:33:29.803Z,7.50
2023-05-03T02:35:56.837Z,8.35
2023-05-03T02:38:23.997Z,7.07
2023-05-03T02:40:51.605Z,7.57
2023-05-03T02:43:18.798Z,7.72
2023-05-03T02:45:45.895Z,8.10
2023-05-03T02:48:13.237Z,6.57
2023-05-03T02:50:40.922Z,7.03
2023-05-03T02:53:08.515Z,6.35
2023-05-03T02:55:36.694Z,7.80
2023-05-03T02:58:04.072Z,7.38
2023-05-03T03:00:31.256Z,8.40
2023-05-03T03:02:58.493Z,8.32
2023-05-03T03:05:25.729Z,7.55
2023-05-03T03:07:52.769Z,8.82
2023-05-03T03:10:20.148Z,8.57
2023-05-03T03:12:48.732Z,7.95
2023-05-03T03:15:24.643Z,9.30
2023-05-03T03:17:52.005Z,7.95
2023-05-03T03:20:19.226Z,8.35
2023-05-03T03:22:48.179Z,9.00
2023-05-03T03:25:15.996Z,11.13
2023-05-03T03:27:43.023Z,9.02
2023-05-03T03:30:10.477Z,9.98
2023-05-03T03:32:45.409Z,10.88
2023-05-03T03:35:18.308Z,10.45
2023-05-03T03:37:45.418Z,9.73
2023-05-03T03:40:13.253Z,8.65
2023-05-03T03:42:40.750Z,9.10
2023-05-03T03:45:08.570Z,9.18
2023-05-03T03:47:35.687Z,8.75
2023-05-03T03:50:03.018Z,7.75
2023-05-03T03:52:32.086Z,8.43
2023-05-03T03:54:59.233Z,8.43
2023-05-03T03:57:30.059Z,9.15
2023-05-03T03:59:58.281Z,9.38
2023-05-03T04:02:27.618Z,9.55
2023-05-03T04:04:54.682Z,10.30
2023-05-03T04:07:22.396Z,9.88
2023-05-03T04:09:49.855Z,11.25
2023-05-03T04:12:17.520Z,8.15
2023-05-03T04:14:46.954Z,8.02
2023-05-03T04:17:14.175Z,8.68
2023-05-03T04:19:41.696Z,9.70
2023-05-03T04:22:09.395Z,10.40
2023-05-03T04:24:39.566Z,8.80
2023-05-03T04:27:08.720Z,10.27
2023-05-03T04:29:38.636Z,9.90
2023-05-03T04:32:07.724Z,10.88
2023-05-03T04:34:36.082Z,11.27
2023-05-03T04:37:05.095Z,11.70
2023-05-03T04:39:32.811Z,12.80
2023-05-03T04:42:00.158Z,11.60
2023-05-03T04:44:27.674Z,11.05
2023-05-03T04:46:54.902Z,10.00
2023-05-03T04:49:22.461Z,9.50
2023-05-03T04:51:49.493Z,10.15
2023-05-03T04:54:17.708Z,8.57
2023-05-03T04:56:44.770Z,10.40
2023-05-03T04:59:16.536Z,10.87
2023-05-03T05:01:43.808Z,10.32
2023-05-03T05:04:11.163Z,9.63
2023-05-03T05:06:43.385Z,10.98
2023-05-03T05:09:22.647Z,9.80
2023-05-03T05:11:57.214Z,9.75
2023-05-03T05:14:28.162Z,9.95
2023-05-03T05:16:55.401Z,8.38
2023-05-03T05:19:22.817Z,10.07
2023-05-03T05:21:51.472Z,9.13
2023-05-03T05:24:19.296Z,8.93
2023-05-03T05:26:46.930Z,9.20
2023-05-03T05:29:15.449Z,9.02
2023-05-03T05:31:43.049Z,8.75
2023-05-03T05:34:11.137Z,9.90
2023-05-03T05:36:38.292Z,8.40
2023-05-03T05:39:09.416Z,9.68
2023-05-03T05:41:36.442Z,8.73
2023-05-03T05:44:03.927Z,8.77
2023-05-03T05:46:31.500Z,9.35
2023-05-03T05:48:59.316Z,9.90
2023-05-03T05:51:27.944Z,9.55
2023-05-03T05:53:55.375Z,8.98
2023-05-03T05:56:23.714Z,9.13
2023-05-03T05:58:50.839Z,9.25
2023-05-03T06:01:18.030Z,8.50
2023-05-03T06:03:45.519Z,8.07
2023-05-03T06:06:12.568Z,7.57
2023-05-03T06:08:39.670Z,7.28
2023-05-03T06:11:07.695Z,8.18
2023-05-03T06:13:38.319Z,7.93
2023-05-03T06:16:06.846Z,7.47
2023-05-03T06:18:33.855Z,7.50
2023-05-03T06:21:00.936Z,6.97
2023-05-03T06:23:28.134Z,6.78
2023-05-03T06:25:57.433Z,7.20
2023-05-03T06:28:25.419Z,5.60
2023-05-03T06:30:55.021Z,6.53
2023-05-03T06:33:22.421Z,5.85
2023-05-03T06:35:51.932Z,6.20
2023-05-03T06:38:19.857Z,6.88
2023-05-03T06:40:47.756Z,6.75
2023-05-03T06:43:14.824Z,6.78
2023-05-03T06:45:45.199Z,7.60
2023-05-03T06:48:12.273Z,6.88
2023-05-03T06:50:39.852Z,6.53
2023-05-03T06:53:06.851Z,6.60
2023-05-03T06:55:33.988Z,7.20
2023-05-03T06:58:01.440Z,6.13
2023-05-03T07:00:28.669Z,5.15
2023-05-03T07:02:56.641Z,4.63
2023-05-03T07:05:23.698Z,3.17
2023-05-03T07:07:50.874Z,11.52
2023-05-03T07:10:18.006Z,5.80
2023-05-03T07:12:44.983Z,3.10
2023-05-03T07:15:12.082Z,9.88
2023-05-03T07:17:39.077Z,2.92
2023-05-03T07:20:07.076Z,3.40
2023-05-03T07:22:34.083Z,3.85
2023-05-03T07:25:01.221Z,2.83
2023-05-03T07:27:28.277Z,7.75
2023-05-03T07:29:55.363Z,2.65
2023-05-03T07:32:22.727Z,2.55
2023-05-03T07:34:50.127Z,2.38
2023-05-03T07:37:17.389Z,2.28
2023-05-03T07:39:45.500Z,2.53
2023-05-03T07:42:12.556Z,2.45
2023-05-03T07:44:39.531Z,2.80
2023-05-03T07:47:06.552Z,2.45
2023-05-03T07:49:35.705Z,3.53
2023-05-03T07:52:03.052Z,2.67
2023-05-03T07:54:30.292Z,3.13
2023-05-03T07:56:57.422Z,2.90
2023-05-03T07:59:24.430Z,2.08
2023-05-03T08:01:51.474Z,2.10
2023-05-03T08:04:18.775Z,2.45
2023-05-03T08:06:46.096Z,3.08
2023-05-03T08:09:13.980Z,2.35
2023-05-03T08:11:43.184Z,2.50
2023-05-03T08:14:11.367Z,2.10
2023-05-03T08:16:38.721Z,3.95
2023-05-03T08:19:05.970Z,2.85
2023-05-03T08:21:33.223Z,1.88
2023-05-03T08:24:00.820Z,2.15
2023-05-03T08:26:29.705Z,2.28
2023-05-03T08:28:56.912Z,2.42
2023-05-03T08:31:24.064Z,2.50
2023-05-03T08:33:51.681Z,2.45
2023-05-03T08:36:18.912Z,2.42
2023-05-03T08:38:45.951Z,1.98
2023-05-03T08:41:26.735Z,2.65
2023-05-03T08:43:55.332Z,2.58
2023-05-03T08:46:22.567Z,2.28
2023-05-03T08:48:52.612Z,2.03
2023-05-03T08:51:21.402Z,2.30
2023-05-03T08:53:49.759Z,2.22
2023-05-03T08:56:26.893Z,1.48
2023-05-03T08:58:53.875Z,1.98
2023-05-03T09:01:21.023Z,1.85
2023-05-03T09:03:51.936Z,2.17
2023-05-03T09:06:26.251Z,2.13
2023-05-03T09:08:54.648Z,2.22
2023-05-03T09:11:32.377Z,1.85
2023-05-03T09:14:16.942Z,1.90
2023-05-03T09:16:45.613Z,2.05
2023-05-03T09:19:15.065Z,2.08
2023-05-03T09:21:44.214Z,2.25
2023-05-03T09:24:21.758Z,1.98
2023-05-03T09:26:51.050Z,2.85
2023-05-03T09:29:27.645Z,1.65
2023-05-03T09:32:00.383Z,1.95
2023-05-03T09:34:27.433Z,1.60
2023-05-03T09:36:55.097Z,1.80
2023-05-03T09:39:22.091Z,1.60
2023-05-03T09:41:49.525Z,1.60
2023-05-03T09:44:19.420Z,1.98
2023-05-03T09:47:06.124Z,1.75
2023-05-03T09:49:34.037Z,2.55
2023-05-03T09:52:01.947Z,1.80
2023-05-03T09:54:31.365Z,1.48
2023-05-03T09:56:59.109Z,1.60
2023-05-03T09:59:26.167Z,1.60
2023-05-03T10:01:57.545Z,1.77
2023-05-03T10:04:27.813Z,1.52
2023-05-03T10:07:00.423Z,1.35
2023-05-03T10:09:37.236Z,1.25
2023-05-03T10:12:08.525Z,1.33
2023-05-03T10:14:36.239Z,1.17
2023-05-03T10:17:08.777Z,1.50
2023-05-03T10:19:46.023Z,0.98
2023-05-03T10:22:13.158Z,1.50
2023-05-03T10:25:00.246Z,1.13
2023-05-03T10:27:45.803Z,1.40
2023-05-03T10:30:34.706Z,1.42
2023-05-03T10:33:28.630Z,1.35
2023-05-03T10:35:56.144Z,0.88
2023-05-03T10:38:25.840Z,1.48
2023-05-03T10:40:54.941Z,1.23
2023-05-03T10:43:46.041Z,1.05
2023-05-03T10:46:31.351Z,1.00
2023-05-03T10:49:19.490Z,1.30
2023-05-03T10:51:46.773Z,0.95
2023-05-03T10:54:13.979Z,1.35
2023-05-03T10:56:55.996Z,1.20
2023-05-03T10:59:24.197Z,0.80
2023-05-03T11:01:52.984Z,0.82
2023-05-03T11:04:33.882Z,0.98
2023-05-03T11:07:01.385Z,1.30
2023-05-03T11:09:33.211Z,2.53
2023-05-03T11:12:04.384Z,1.13
2023-05-03T11:14:31.733Z,0.98
2023-05-03T11:16:58.858Z,1.10
2023-05-03T11:19:26.118Z,1.55
2023-05-03T11:21:53.378Z,1.08
2023-05-03T11:24:20.525Z,1.33
2023-05-03T11:26:48.724Z,1.30
2023-05-03T11:29:17.185Z,2.13
2023-05-03T11:31:44.568Z,2.50
2023-05-03T11:34:12.839Z,1.17
2023-05-03T11:36:41.550Z,1.50
2023-05-03T11:39:09.241Z,2.17
2023-05-03T11:41:36.793Z,0.85
2023-05-03T11:44:16.123Z,1.42
2023-05-03T11:46:46.475Z,1.40
2023-05-03T11:49:18.400Z,1.27
2023-05-03T11:51:48.420Z,1.15
2023-05-03T11:54:25.131Z,0.70
2023-05-03T11:56:57.901Z,1.35
2023-05-03T11:59:38.925Z,0.90
2023-05-03T12:02:11.657Z,0.98
2023-05-03T12:04:44.661Z,0.90
2023-05-03T12:07:14.719Z,0.80
2023-05-03T12:09:50.321Z,1.20
2023-05-03T12:12:31.588Z,1.38
2023-05-03T12:15:03.490Z,1.02
2023-05-03T12:17:44.152Z,1.05
2023-05-03T12:20:51.847Z,1.23
2023-05-03T12:23:09.898Z,0.75
2023-05-03T12:25:39.635Z,1.00
2023-05-03T12:28:19.842Z,1.10
2023-05-03T12:30:48.318Z,0.80
2023-05-03T12:33:16.992Z,1.48
2023-05-03T12:35:47.794Z,0.90
2023-05-03T12:38:17.388Z,1.00
2023-05-03T12:40:46.724Z,0.70
2023-05-03T12:43:13.972Z,0.88
2023-05-03T12:45:41.433Z,1.10
2023-05-03T12:48:09.181Z,0.80
2023-05-03T12:50:38.555Z,1.50
2023-05-03T12:53:09.598Z,1.00
2023-05-03T12:55:43.252Z,0.80
2023-05-03T13:00:53.485Z,0.75
2023-05-03T13:03:33.492Z,1.00
2023-05-03T13:06:12.433Z,0.93
2023-05-03T13:08:49.340Z,0.60
2023-05-03T13:11:18.975Z,0.85
2023-05-03T13:13:46.412Z,1.10
2023-05-03T13:16:14.442Z,0.85
2023-05-03T13:18:43.223Z,1.02
2023-05-03T13:21:10.424Z,0.80
2023-05-03T13:23:37.813Z,0.80
2023-05-03T13:26:05.011Z,1.23
2023-05-03T13:28:32.036Z,0.93
2023-05-03T13:30:59.061Z,0.70
2023-05-03T13:33:26.494Z,1.10
2023-05-03T13:35:53.471Z,0.52
2023-05-03T13:38:20.713Z,0.90
2023-05-03T13:40:47.720Z,0.88
2023-05-03T13:43:14.819Z,0.70
2023-05-03T13:45:41.906Z,0.68
2023-05-03T13:48:16.218Z,0.68
2023-05-03T13:50:45.902Z,1.08
2023-05-03T13:53:12.982Z,0.80
2023-05-03T13:55:40.109Z,1.02
2023-05-03T13:58:07.131Z,0.70
2023-05-03T14:00:34.163Z,0.85
2023-05-03T14:03:01.443Z,0.80
2023-05-03T14:05:28.962Z,0.95
2023-05-03T14:07:56.713Z,0.65
2023-05-03T14:10:24.150Z,0.60
2023-05-03T14:12:52.105Z,0.70
2023-05-03T14:15:19.335Z,1.00
2023-05-03T14:17:49.530Z,0.80
2023-05-03T14:20:19.975Z,0.80
2023-05-03T14:22:47.036Z,1.15
2023-05-03T14:25:14.123Z,0.52
2023-05-03T14:27:41.119Z,2.75
2023-05-03T14:30:09.399Z,0.60
2023-05-03T14:32:36.460Z,0.60
2023-05-03T14:35:03.999Z,0.98
2023-05-03T14:37:31.182Z,0.73
2023-05-03T14:39:58.450Z,0.70
2023-05-03T14:42:30.227Z,0.90
2023-05-03T14:44:57.425Z,0.80
2023-05-03T14:47:24.632Z,0.80
2023-05-03T14:49:52.032Z,0.70
2023-05-03T14:52:19.071Z,0.68
2023-05-03T14:54:46.224Z,0.60
2023-05-03T14:57:13.217Z,0.85
2023-05-03T14:59:40.379Z,1.75
2023-05-03T15:02:07.526Z,1.10
2023-05-03T15:04:37.008Z,0.82
2023-05-03T15:07:06.387Z,0.52
2023-05-03T15:09:33.863Z,0.70
2023-05-03T15:12:01.953Z,0.77
2023-05-03T15:14:29.055Z,0.60
2023-05-03T15:16:56.277Z,0.70
2023-05-03T15:19:23.367Z,0.60
2023-05-03T15:21:51.573Z,0.75
2023-05-03T15:24:18.845Z,0.50
2023-05-03T15:26:46.909Z,0.65
2023-05-03T15:29:15.270Z,0.63
2023-05-03T15:31:42.817Z,1.95
2023-05-03T15:34:12.237Z,0.90
2023-05-03T15:36:40.418Z,0.80
2023-05-03T15:39:07.649Z,1.00
2023-05-03T15:41:34.759Z,0.70
2023-05-03T15:44:05.177Z,1.30
2023-05-03T15:46:33.461Z,2.17
2023-05-03T15:49:00.941Z,1.17
2023-05-03T15:51:28.080Z,0.80
2023-05-03T15:53:55.641Z,0.65
2023-05-03T15:56:22.688Z,0.80
2023-05-03T15:58:50.338Z,0.60
2023-05-03T16:01:18.547Z,0.93
2023-05-03T16:03:46.145Z,0.50
2023-05-03T16:06:16.676Z,0.80
2023-05-03T16:08:44.208Z,0.70
2023-05-03T16:11:12.680Z,1.50
2023-05-03T16:13:39.710Z,1.02
2023-05-03T16:16:06.981Z,1.00
2023-05-03T16:18:34.058Z,1.50
2023-05-03T16:21:01.935Z,0.50
2023-05-03T16:23:28.990Z,1.25
2023-05-03T16:25:56.480Z,0.93
2023-05-03T16:28:23.547Z,0.82
2023-05-03T16:30:50.532Z,3.25
2023-05-03T16:33:18.140Z,1.58
2023-05-03T16:35:45.193Z,2.00
2023-05-03T16:38:12.299Z,1.90
2023-05-03T16:40:40.717Z,1.42
2023-05-03T16:43:07.854Z,1.50
2023-05-03T16:45:35.066Z,1.85
2023-05-03T16:48:04.816Z,1.05
2023-05-03T16:50:33.329Z,0.95
2023-05-03T16:53:00.331Z,1.00
2023-05-03T16:55:27.428Z,0.90
2023-05-03T16:57:54.465Z,1.23
2023-05-03T17:00:21.806Z,1.08
2023-05-03T17:02:49.155Z,0.73
2023-05-03T17:05:16.319Z,1.05
2023-05-03T17:07:43.369Z,1.10
2023-05-03T17:10:10.593Z,1.05
2023-05-03T17:12:37.868Z,1.33
2023-05-03T17:15:05.568Z,1.50
2023-05-03T17:17:32.976Z,1.00
2023-05-03T17:20:00.091Z,2.28
2023-05-03T17:22:27.929Z,1.95
2023-05-03T17:24:57.776Z,1.40
2023-05-03T17:27:24.911Z,1.83
2023-05-03T17:29:51.901Z,1.10
2023-05-03T17:32:19.217Z,1.40
2023-05-03T17:34:46.238Z,1.40
2023-05-03T17:37:13.363Z,1.20
2023-05-03T17:39:41.386Z,1.30
2023-05-03T17:42:08.941Z,1.83
2023-05-03T17:44:36.009Z,1.17
2023-05-03T17:47:04.478Z,1.33
2023-05-03T17:49:34.608Z,1.02
2023-05-03T17:52:01.684Z,2.05
2023-05-03T17:54:29.105Z,1.48
2023-05-03T17:56:56.170Z,1.27
2023-05-03T17:59:23.167Z,0.95
2023-05-03T18:01:50.206Z,1.27
2023-05-03T18:04:17.212Z,1.08
2023-05-03T18:06:44.415Z,0.88
2023-05-03T18:09:11.389Z,0.85
2023-05-03T18:11:39.914Z,1.10
2023-05-03T18:14:06.987Z,1.00
2023-05-03T18:16:33.963Z,1.20
2023-05-03T18:19:00.963Z,1.30
2023-05-03T18:21:28.591Z,1.10
2023-05-03T18:23:56.404Z,1.20
2023-05-03T18:26:23.643Z,0.80
2023-05-03T18:28:52.977Z,0.80
2023-05-03T18:31:21.415Z,0.95
2023-05-03T18:33:48.894Z,0.60
2023-05-03T18:36:17.001Z,1.58
2023-05-03T18:38:44.315Z,0.93
2023-05-03T18:41:16.458Z,1.17
2023-05-03T18:43:44.716Z,0.60
2023-05-03T18:46:17.255Z,0.60
2023-05-03T18:48:44.347Z,0.82
2023-05-03T18:51:11.674Z,0.90
2023-05-03T18:53:38.813Z,0.80
2023-05-03T18:56:06.102Z,0.80
2023-05-03T18:58:33.258Z,0.60
2023-05-03T19:01:00.581Z,0.95
2023-05-03T19:03:31.789Z,0.70
2023-05-03T19:06:04.057Z,0.95
2023-05-03T19:08:31.667Z,1.20
2023-05-03T19:11:10.705Z,1.85
2023-05-03T19:13:37.834Z,1.08
2023-05-03T19:16:05.445Z,2.20
2023-05-03T19:18:32.619Z,0.98
2023-05-03T19:20:59.934Z,1.70
2023-05-03T19:23:27.076Z,1.65
2023-05-03T19:25:54.104Z,2.95
2023-05-03T19:28:21.332Z,2.28
2023-05-03T19:30:51.667Z,2.00
2023-05-03T19:33:19.911Z,1.85
2023-05-03T19:35:47.615Z,1.75
2023-05-03T19:38:14.789Z,1.75
2023-05-03T19:40:42.152Z,2.08
2023-05-03T19:43:09.187Z,1.10
2023-05-03T19:45:41.832Z,1.65
2023-05-03T19:50:37.434Z,1.23
2023-05-03T19:53:04.451Z,1.23
2023-05-03T19:55:31.577Z,1.70
2023-05-03T19:57:58.718Z,1.00
2023-05-03T20:00:27.398Z,1.42
2023-05-03T20:02:54.689Z,1.35
2023-05-03T20:05:21.965Z,1.02
2023-05-03T20:07:49.123Z,1.15
2023-05-03T20:10:16.235Z,1.52
2023-05-03T20:12:43.282Z,1.30
2023-05-03T20:15:11.563Z,1.92
2023-05-03T20:17:38.794Z,1.70
2023-05-03T20:20:07.345Z,2.17
2023-05-03T20:22:34.350Z,2.38
2023-05-03T20:25:01.335Z,2.20
2023-05-03T20:27:28.460Z,2.80
2023-05-03T20:29:56.594Z,2.90
2023-05-03T20:32:23.626Z,4.10
2023-05-03T20:34:50.629Z,4.18
2023-05-03T20:37:18.228Z,4.20
2023-05-03T20:39:45.318Z,3.75
2023-05-03T20:42:12.284Z,4.00
2023-05-03T20:44:39.278Z,3.03
2023-05-03T20:47:06.260Z,3.00
2023-05-03T20:49:33.320Z,2.60
2023-05-03T20:52:00.481Z,2.65
2023-05-03T20:54:27.458Z,2.13
2023-05-03T20:56:54.434Z,2.63
2023-05-03T20:59:21.481Z,2.72
2023-05-03T21:01:48.542Z,3.05
2023-05-03T21:04:15.886Z,2.92
2023-05-03T21:06:45.057Z,2.60
2023-05-03T21:09:12.414Z,2.78
2023-05-03T21:11:39.683Z,2.70
2023-05-03T21:14:06.664Z,2.63
2023-05-03T21:16:33.979Z,2.88
2023-05-03T21:19:02.884Z,2.70
2023-05-03T21:21:30.811Z,2.90
2023-05-03T21:23:58.060Z,2.85
2023-05-03T21:26:25.140Z,2.95
2023-05-03T21:28:52.127Z,3.47
2023-05-03T21:31:19.207Z,2.80
2023-05-03T21:33:46.245Z,2.42
2023-05-03T21:36:13.670Z,2.55
2023-05-03T21:38:40.751Z,2.00
2023-05-03T21:41:08.230Z,2.22
2023-05-03T21:43:35.795Z,2.28
2023-05-03T21:46:07.830Z,2.40
2023-05-03T21:48:37.078Z,1.85
2023-05-03T21:51:04.113Z,2.03
2023-05-03T21:53:31.271Z,1.90
2023-05-03T21:55:58.232Z,3.22
2023-05-03T21:58:25.902Z,2.30
2023-05-03T22:00:53.485Z,2.35
2023-05-03T22:03:20.586Z,2.30
2023-05-03T22:05:48.715Z,2.17
2023-05-03T22:08:18.011Z,2.60
2023-05-03T22:10:45.580Z,2.90
2023-05-03T22:13:12.967Z,3.33
2023-05-03T22:15:40.194Z,2.95
2023-05-03T22:18:07.469Z,3.50
2023-05-03T22:20:34.617Z,3.75
2023-05-03T22:23:01.761Z,3.75
2023-05-03T22:25:31.951Z,3.47
2023-05-03T22:27:59.547Z,3.00
2023-05-03T22:30:26.608Z,3.33
2023-05-03T22:32:53.830Z,3.30
2023-05-03T22:35:21.143Z,2.75
2023-05-03T22:37:48.219Z,3.70
2023-05-03T22:40:15.246Z,4.28
2023-05-03T22:42:42.411Z,3.55
2023-05-03T22:45:09.801Z,3.25
2023-05-03T22:47:36.844Z,3.60
2023-05-03T22:50:04.330Z,2.67
2023-05-03T22:52:31.852Z,3.70
2023-05-03T22:55:00.445Z,3.20
2023-05-03T22:57:27.716Z,3.42
2023-05-03T22:59:55.152Z,3.20
2023-05-03T23:02:22.182Z,2.42
2023-05-03T23:04:49.216Z,2.35
2023-05-03T23:07:16.217Z,2.25
2023-05-03T23:09:43.996Z,2.88
2023-05-03T23:12:11.764Z,2.95
2023-05-03T23:14:42.212Z,2.30
2023-05-03T23:17:10.610Z,2.58
2023-05-03T23:19:38.016Z,3.00
2023-05-03T23:22:05.373Z,2.55
2023-05-03T23:24:34.576Z,3.08
2023-05-03T23:27:01.779Z,4.22
2023-05-03T23:29:29.259Z,3.63
2023-05-03T23:31:56.957Z,5.20
2023-05-03T23:34:24.667Z,4.30
2023-05-03T23:36:51.653Z,3.92
2023-05-03T23:39:18.727Z,4.13
2023-05-03T23:41:45.911Z,3.50
2023-05-03T23:44:13.040Z,4.32
2023-05-03T23:46:40.085Z,3.63
2023-05-03T23:49:07.516Z,3.80
2023-05-03T23:51:34.683Z,3.45
2023-05-03T23:54:01.667Z,3.65
2023-05-03T23:56:28.680Z,3.80
2023-05-03T23:58:55.784Z,3.78
